createdAt,value
2017-06-24T00:00:14.730Z,19
2017-06-24T00:00:55.267Z,19.07
2017-06-24T00:01:35.808Z,18.98
2017-06-24T00:02:16.351Z,18.94
2017-06-24T00:02:56.883Z,18.94
2017-06-24T00:03:37.416Z,18.94
2017-06-24T00:04:17.946Z,18.99
2017-06-24T00:04:58.486Z,18.88
2017-06-24T00:05:39.022Z,18.91
2017-06-24T00:06:19.563Z,18.82
2017-06-24T00:07:00.110Z,18.9
2017-06-24T00:07:40.651Z,18.91
2017-06-24T00:08:21.182Z,18.84
2017-06-24T00:09:01.726Z,18.84
2017-06-24T00:09:42.254Z,18.84
2017-06-24T00:10:22.797Z,18.87
2017-06-24T00:11:03.342Z,18.88
2017-06-24T00:11:43.875Z,18.91
2017-06-24T00:12:24.422Z,18.88
2017-06-24T00:13:04.972Z,18.9
2017-06-24T00:13:45.518Z,18.92
2017-06-24T00:14:26.047Z,18.87
2017-06-24T00:15:06.586Z,18.84
2017-06-24T00:15:47.126Z,18.84
2017-06-24T00:16:27.658Z,18.87
2017-06-24T00:17:08.203Z,18.87
2017-06-24T00:17:48.755Z,18.92
2017-06-24T00:18:29.312Z,18.81
2017-06-24T00:19:09.853Z,18.82
2017-06-24T00:19:50.380Z,18.81
2017-06-24T00:20:30.934Z,18.76
2017-06-24T00:21:11.478Z,18.67
2017-06-24T00:21:52.025Z,18.67
2017-06-24T00:22:32.563Z,18.73
2017-06-24T00:23:13.104Z,18.69
2017-06-24T00:23:53.664Z,18.69
2017-06-24T00:24:34.208Z,18.72
2017-06-24T00:25:14.758Z,18.69
2017-06-24T00:25:55.293Z,18.65
2017-06-24T00:26:35.827Z,18.52
2017-06-24T00:27:16.370Z,18.54
2017-06-24T00:27:56.912Z,18.5
2017-06-24T00:28:37.455Z,18.5
2017-06-24T00:29:18.023Z,18.5
2017-06-24T00:29:58.536Z,18.52
2017-06-24T00:30:39.073Z,18.45
2017-06-24T00:31:19.612Z,18.45
2017-06-24T00:32:00.135Z,18.45
2017-06-24T00:32:40.665Z,18.48
2017-06-24T00:33:21.197Z,18.33
2017-06-24T00:34:01.737Z,18.32
2017-06-24T00:34:42.288Z,18.42
2017-06-24T00:35:22.828Z,18.37
2017-06-24T00:36:03.369Z,18.35
2017-06-24T00:36:43.903Z,18.37
2017-06-24T00:37:24.433Z,18.37
2017-06-24T00:38:04.977Z,18.37
2017-06-24T00:38:45.521Z,18.25
2017-06-24T00:39:26.066Z,18.25
2017-06-24T00:40:06.605Z,18.2
2017-06-24T00:40:47.146Z,18.17
2017-06-24T00:41:27.683Z,18.17
2017-06-24T00:42:08.228Z,18.15
2017-06-24T00:42:48.779Z,18.14
2017-06-24T00:43:29.324Z,18.14
2017-06-24T00:44:09.847Z,18.1
2017-06-24T00:44:50.387Z,18.11
2017-06-24T00:45:30.926Z,18.08
2017-06-24T00:46:11.469Z,18.05
2017-06-24T00:46:52.021Z,18.02
2017-06-24T00:47:32.566Z,17.99
2017-06-24T00:48:13.104Z,18.08
2017-06-24T00:48:53.658Z,17.97
2017-06-24T00:49:34.218Z,18
2017-06-24T00:50:14.754Z,17.99
2017-06-24T00:50:55.270Z,17.9
2017-06-24T00:51:35.801Z,17.95
2017-06-24T00:52:16.344Z,17.97
2017-06-24T00:52:56.887Z,17.96
2017-06-24T00:53:37.421Z,18.03
2017-06-24T00:54:17.961Z,17.95
2017-06-24T00:54:58.511Z,17.96
2017-06-24T00:55:39.052Z,17.95
2017-06-24T00:56:19.585Z,17.93
2017-06-24T00:57:00.109Z,17.92
2017-06-24T00:57:40.649Z,17.82
2017-06-24T00:58:21.187Z,17.93
2017-06-24T00:59:01.725Z,17.9
2017-06-24T00:59:42.255Z,17.78
2017-06-24T01:00:22.788Z,17.77
2017-06-24T01:01:03.330Z,17.77
2017-06-24T01:01:43.857Z,17.84
2017-06-24T01:02:24.402Z,17.79
2017-06-24T01:03:04.948Z,17.81
2017-06-24T01:03:45.466Z,17.79
2017-06-24T01:04:26.003Z,17.7
2017-06-24T01:05:06.538Z,17.72
2017-06-24T01:05:47.061Z,17.74
2017-06-24T01:06:27.604Z,17.72
2017-06-24T01:07:08.140Z,17.72
2017-06-24T01:07:48.689Z,17.63
2017-06-24T01:08:29.232Z,17.72
2017-06-24T01:09:09.773Z,17.74
2017-06-24T01:09:50.313Z,17.7
2017-06-24T01:10:30.851Z,17.72
2017-06-24T01:11:11.392Z,17.77
2017-06-24T01:11:51.932Z,17.71
2017-06-24T01:12:32.467Z,17.75
2017-06-24T01:13:13.012Z,17.81
2017-06-24T01:13:53.553Z,17.75
2017-06-24T01:14:34.098Z,17.72
2017-06-24T01:15:14.639Z,17.82
2017-06-24T01:15:55.183Z,17.74
2017-06-24T01:16:35.720Z,17.72
2017-06-24T01:17:16.261Z,17.75
2017-06-24T01:17:56.799Z,17.75
2017-06-24T01:18:37.338Z,17.74
2017-06-24T01:19:17.872Z,17.7
2017-06-24T01:19:58.412Z,17.72
2017-06-24T01:20:38.976Z,17.74
2017-06-24T01:21:19.510Z,17.77
2017-06-24T01:22:00.060Z,17.71
2017-06-24T01:22:40.604Z,17.72
2017-06-24T01:23:21.137Z,17.7
2017-06-24T01:24:01.672Z,17.71
2017-06-24T01:24:42.226Z,17.68
2017-06-24T01:25:22.754Z,17.62
2017-06-24T01:26:03.280Z,17.59
2017-06-24T01:26:43.819Z,17.63
2017-06-24T01:27:24.365Z,17.58
2017-06-24T01:28:04.897Z,17.55
2017-06-24T01:28:45.443Z,17.52
2017-06-24T01:29:25.984Z,17.51
2017-06-24T01:30:06.516Z,17.52
2017-06-24T01:30:47.040Z,17.52
2017-06-24T01:31:27.582Z,17.51
2017-06-24T01:32:08.137Z,17.51
2017-06-24T01:32:48.653Z,17.48
2017-06-24T01:33:29.199Z,17.4
2017-06-24T01:34:09.748Z,17.43
2017-06-24T01:34:50.284Z,17.37
2017-06-24T01:35:30.825Z,17.4
2017-06-24T01:36:11.341Z,17.4
2017-06-24T01:36:51.878Z,17.36
2017-06-24T01:37:32.426Z,17.33
2017-06-24T01:38:12.969Z,17.4
2017-06-24T01:38:53.505Z,17.3
2017-06-24T01:39:34.054Z,17.36
2017-06-24T01:40:14.589Z,17.3
2017-06-24T01:40:55.125Z,17.28
2017-06-24T01:41:35.658Z,17.34
2017-06-24T01:42:16.198Z,17.3
2017-06-24T01:42:56.736Z,17.4
2017-06-24T01:43:37.279Z,17.3
2017-06-24T01:44:17.827Z,17.31
2017-06-24T01:44:58.362Z,17.26
2017-06-24T01:45:38.907Z,17.33
2017-06-24T01:46:19.450Z,17.21
2017-06-24T01:46:59.992Z,17.26
2017-06-24T01:47:40.534Z,17.33
2017-06-24T01:48:21.075Z,17.28
2017-06-24T01:49:01.602Z,17.21
2017-06-24T01:49:42.145Z,17.19
2017-06-24T01:50:22.682Z,17.25
2017-06-24T01:51:03.230Z,17.19
2017-06-24T01:51:43.768Z,17.19
2017-06-24T01:52:24.317Z,17.25
2017-06-24T01:53:04.851Z,17.25
2017-06-24T01:53:45.394Z,17.34
2017-06-24T01:54:25.939Z,17.21
2017-06-24T01:55:06.480Z,17.26
2017-06-24T01:55:47.020Z,17.23
2017-06-24T01:56:27.550Z,17.19
2017-06-24T01:57:08.093Z,17.15
2017-06-24T01:57:48.632Z,17.06
2017-06-24T01:58:29.175Z,17.07
2017-06-24T01:59:09.720Z,17.08
2017-06-24T01:59:50.257Z,17.11
2017-06-24T02:00:30.798Z,17.04
2017-06-24T02:01:11.340Z,17.06
2017-06-24T02:01:51.864Z,17.04
2017-06-24T02:02:32.405Z,17.06
2017-06-24T02:03:12.961Z,17.11
2017-06-24T02:03:53.493Z,17.07
2017-06-24T02:04:34.031Z,17.11
2017-06-24T02:05:14.578Z,16.97
2017-06-24T02:05:55.108Z,17.04
2017-06-24T02:06:35.655Z,16.94
2017-06-24T02:07:16.224Z,16.94
2017-06-24T02:07:56.719Z,16.98
2017-06-24T02:08:37.254Z,16.94
2017-06-24T02:09:17.799Z,16.98
2017-06-24T02:09:58.336Z,17.03
2017-06-24T02:10:38.870Z,16.96
2017-06-24T02:11:19.412Z,16.91
2017-06-24T02:11:59.945Z,16.96
2017-06-24T02:12:40.472Z,17.03
2017-06-24T02:13:21.012Z,17.04
2017-06-24T02:14:01.561Z,16.91
2017-06-24T02:14:42.109Z,16.97
2017-06-24T02:15:22.637Z,16.93
2017-06-24T02:16:03.174Z,17.01
2017-06-24T02:16:43.715Z,16.86
2017-06-24T02:17:24.255Z,16.93
2017-06-24T02:18:04.786Z,16.89
2017-06-24T02:18:45.325Z,16.98
2017-06-24T02:19:25.863Z,16.88
2017-06-24T02:20:06.414Z,16.93
2017-06-24T02:20:46.947Z,16.94
2017-06-24T02:21:27.493Z,16.89
2017-06-24T02:22:08.030Z,16.85
2017-06-24T02:22:48.571Z,16.94
2017-06-24T02:23:29.111Z,16.83
2017-06-24T02:24:09.642Z,16.88
2017-06-24T02:24:50.178Z,16.91
2017-06-24T02:25:30.717Z,16.91
2017-06-24T02:26:11.258Z,16.91
2017-06-24T02:26:51.801Z,16.88
2017-06-24T02:27:32.336Z,16.86
2017-06-24T02:28:12.878Z,16.93
2017-06-24T02:28:53.417Z,16.93
2017-06-24T02:29:33.958Z,16.79
2017-06-24T02:30:14.491Z,16.89
2017-06-24T02:30:55.031Z,16.83
2017-06-24T02:31:35.582Z,16.79
2017-06-24T02:32:16.120Z,16.82
2017-06-24T02:32:56.651Z,16.78
2017-06-24T02:33:37.190Z,16.86
2017-06-24T02:34:17.711Z,16.83
2017-06-24T02:34:58.265Z,16.76
2017-06-24T02:35:38.793Z,16.86
2017-06-24T02:36:19.332Z,16.83
2017-06-24T02:36:59.869Z,16.82
2017-06-24T02:37:40.412Z,16.76
2017-06-24T02:38:20.961Z,16.83
2017-06-24T02:39:01.506Z,16.85
2017-06-24T02:39:42.057Z,16.76
2017-06-24T02:40:22.586Z,16.76
2017-06-24T02:41:03.127Z,16.83
2017-06-24T02:41:43.655Z,16.85
2017-06-24T02:42:24.199Z,16.83
2017-06-24T02:43:04.742Z,16.81
2017-06-24T02:43:45.283Z,16.82
2017-06-24T02:44:25.817Z,16.81
2017-06-24T02:45:06.362Z,16.81
2017-06-24T02:45:46.902Z,16.83
2017-06-24T02:46:27.445Z,16.81
2017-06-24T02:47:07.991Z,16.83
2017-06-24T02:47:48.531Z,16.85
2017-06-24T02:48:29.075Z,16.82
2017-06-24T02:49:09.612Z,16.81
2017-06-24T02:49:50.156Z,16.66
2017-06-24T02:50:30.693Z,16.7
2017-06-24T02:51:11.240Z,16.76
2017-06-24T02:51:51.778Z,16.67
2017-06-24T02:52:32.321Z,16.61
2017-06-24T02:53:12.863Z,16.6
2017-06-24T02:53:53.404Z,16.6
2017-06-24T02:54:33.951Z,16.64
2017-06-24T02:55:14.488Z,16.58
2017-06-24T02:55:55.038Z,16.61
2017-06-24T02:56:35.566Z,16.48
2017-06-24T02:57:16.098Z,16.42
2017-06-24T02:57:56.649Z,16.56
2017-06-24T02:58:37.180Z,16.52
2017-06-24T02:59:17.717Z,16.42
2017-06-24T02:59:58.260Z,16.5
2017-06-24T03:00:38.804Z,16.43
2017-06-24T03:01:19.351Z,16.43
2017-06-24T03:01:59.871Z,16.38
2017-06-24T03:02:40.504Z,16.39
2017-06-24T03:03:21.031Z,16.42
2017-06-24T03:04:01.574Z,16.41
2017-06-24T03:04:42.111Z,16.39
2017-06-24T03:05:22.670Z,16.41
2017-06-24T03:06:03.182Z,16.3
2017-06-24T03:06:43.713Z,16.38
2017-06-24T03:07:24.264Z,16.27
2017-06-24T03:08:04.816Z,16.33
2017-06-24T03:08:45.345Z,16.34
2017-06-24T03:09:25.894Z,16.3
2017-06-24T03:10:06.428Z,16.25
2017-06-24T03:10:46.968Z,16.25
2017-06-24T03:11:27.505Z,16.25
2017-06-24T03:12:08.044Z,16.21
2017-06-24T03:12:48.585Z,16.25
2017-06-24T03:13:29.130Z,16.28
2017-06-24T03:14:09.670Z,16.24
2017-06-24T03:14:50.214Z,16.17
2017-06-24T03:15:30.750Z,16.07
2017-06-24T03:16:11.293Z,16.05
2017-06-24T03:16:51.835Z,16.02
2017-06-24T03:17:32.376Z,16.08
2017-06-24T03:18:12.910Z,16.11
2017-06-24T03:18:53.455Z,16.07
2017-06-24T03:19:33.988Z,16.01
2017-06-24T03:20:14.530Z,16.02
2017-06-24T03:20:55.068Z,16.08
2017-06-24T03:21:35.610Z,16.01
2017-06-24T03:22:16.150Z,16.01
2017-06-24T03:22:56.715Z,16.11
2017-06-24T03:23:37.256Z,16.01
2017-06-24T03:24:17.804Z,16.01
2017-06-24T03:24:58.340Z,16.04
2017-06-24T03:25:38.880Z,16
2017-06-24T03:26:19.399Z,16.01
2017-06-24T03:26:59.941Z,16.04
2017-06-24T03:27:40.480Z,16.02
2017-06-24T03:28:21.018Z,16.01
2017-06-24T03:29:01.559Z,16
2017-06-24T03:29:42.110Z,15.93
2017-06-24T03:30:22.623Z,15.96
2017-06-24T03:31:03.167Z,15.93
2017-06-24T03:31:43.697Z,15.93
2017-06-24T03:32:24.237Z,15.96
2017-06-24T03:33:04.785Z,16
2017-06-24T03:33:45.320Z,15.93
2017-06-24T03:34:25.866Z,15.93
2017-06-24T03:35:06.403Z,15.96
2017-06-24T03:35:46.936Z,15.92
2017-06-24T03:36:27.458Z,15.96
2017-06-24T03:37:07.996Z,15.97
2017-06-24T03:37:48.535Z,16.04
2017-06-24T03:38:29.071Z,16.04
2017-06-24T03:39:09.617Z,16
2017-06-24T03:39:50.159Z,15.96
2017-06-24T03:40:30.696Z,16
2017-06-24T03:41:11.234Z,16.07
2017-06-24T03:41:51.776Z,15.93
2017-06-24T03:42:32.316Z,16.04
2017-06-24T03:43:12.855Z,15.94
2017-06-24T03:43:53.392Z,15.97
2017-06-24T03:44:33.943Z,16.01
2017-06-24T03:45:14.477Z,16.02
2017-06-24T03:45:55.025Z,16
2017-06-24T03:46:35.562Z,16.04
2017-06-24T03:47:16.096Z,16.01
2017-06-24T03:47:56.636Z,16.02
2017-06-24T03:48:37.170Z,15.97
2017-06-24T03:49:17.698Z,16.02
2017-06-24T03:49:58.250Z,15.97
2017-06-24T03:50:38.781Z,15.97
2017-06-24T03:51:19.328Z,16.01
2017-06-24T03:51:59.866Z,16.01
2017-06-24T03:52:40.404Z,16.01
2017-06-24T03:53:20.945Z,15.92
2017-06-24T03:54:01.487Z,16.01
2017-06-24T03:54:42.040Z,16.01
2017-06-24T03:55:22.571Z,15.97
2017-06-24T03:56:03.115Z,15.97
2017-06-24T03:56:43.655Z,15.96
2017-06-24T03:57:24.206Z,15.93
2017-06-24T03:58:04.741Z,15.97
2017-06-24T03:58:45.279Z,15.96
2017-06-24T03:59:25.816Z,15.92
2017-06-24T04:00:06.364Z,15.89
2017-06-24T04:00:46.899Z,15.96
2017-06-24T04:01:27.442Z,15.94
2017-06-24T04:02:07.983Z,15.93
2017-06-24T04:02:48.527Z,15.94
2017-06-24T04:03:29.068Z,15.97
2017-06-24T04:04:09.615Z,15.97
2017-06-24T04:04:50.143Z,16
2017-06-24T04:05:30.680Z,15.93
2017-06-24T04:06:11.219Z,16.01
2017-06-24T04:06:51.749Z,15.96
2017-06-24T04:07:32.284Z,16
2017-06-24T04:08:12.820Z,15.93
2017-06-24T04:08:53.367Z,16.01
2017-06-24T04:09:33.898Z,16
2017-06-24T04:10:14.437Z,16.01
2017-06-24T04:10:54.967Z,16.04
2017-06-24T04:11:35.487Z,15.94
2017-06-24T04:12:16.029Z,16.01
2017-06-24T04:12:56.553Z,15.97
2017-06-24T04:13:37.093Z,16.01
2017-06-24T04:14:17.628Z,16.01
2017-06-24T04:14:58.176Z,15.93
2017-06-24T04:15:38.710Z,15.97
2017-06-24T04:16:19.260Z,16.05
2017-06-24T04:16:59.797Z,16.05
2017-06-24T04:17:40.341Z,16.14
2017-06-24T04:18:20.883Z,16.02
2017-06-24T04:19:01.423Z,16.04
2017-06-24T04:19:41.957Z,16.07
2017-06-24T04:20:22.486Z,16.02
2017-06-24T04:21:03.034Z,16.08
2017-06-24T04:21:43.599Z,16.04
2017-06-24T04:22:24.139Z,16.01
2017-06-24T04:23:04.690Z,16.01
2017-06-24T04:23:45.235Z,16.05
2017-06-24T04:24:25.841Z,16.08
2017-06-24T04:25:06.430Z,16.11
2017-06-24T04:25:46.962Z,16.15
2017-06-24T04:26:27.510Z,16.07
2017-06-24T04:27:08.048Z,16.09
2017-06-24T04:27:48.590Z,16.2
2017-06-24T04:28:29.138Z,16.12
2017-06-24T04:29:09.677Z,16.07
2017-06-24T04:29:50.224Z,16.11
2017-06-24T04:30:30.767Z,16.14
2017-06-24T04:31:11.313Z,16.14
2017-06-24T04:31:51.846Z,16.23
2017-06-24T04:32:32.388Z,16.24
2017-06-24T04:33:12.939Z,16.11
2017-06-24T04:33:53.468Z,16.14
2017-06-24T04:34:33.998Z,16.17
2017-06-24T04:35:14.551Z,16.14
2017-06-24T04:35:55.085Z,16.28
2017-06-24T04:36:35.635Z,16.25
2017-06-24T04:37:16.177Z,16.2
2017-06-24T04:37:56.719Z,16.2
2017-06-24T04:38:37.255Z,16.15
2017-06-24T04:39:17.795Z,16.17
2017-06-24T04:39:58.334Z,16.3
2017-06-24T04:40:38.872Z,16.23
2017-06-24T04:41:19.414Z,16.2
2017-06-24T04:41:59.955Z,16.24
2017-06-24T04:42:40.487Z,16.21
2017-06-24T04:43:21.041Z,16.27
2017-06-24T04:44:01.566Z,16.27
2017-06-24T04:44:42.090Z,16.23
2017-06-24T04:45:22.645Z,16.23
2017-06-24T04:46:03.177Z,16.3
2017-06-24T04:46:43.711Z,16.28
2017-06-24T04:47:24.264Z,16.3
2017-06-24T04:48:04.789Z,16.3
2017-06-24T04:48:45.337Z,16.33
2017-06-24T04:49:25.880Z,16.31
2017-06-24T04:50:06.432Z,16.33
2017-06-24T04:50:46.956Z,16.34
2017-06-24T04:51:27.506Z,16.38
2017-06-24T04:52:08.035Z,16.39
2017-06-24T04:52:48.608Z,16.39
2017-06-24T04:53:29.135Z,16.43
2017-06-24T04:54:09.672Z,16.45
2017-06-24T04:54:50.219Z,16.42
2017-06-24T04:55:30.728Z,16.42
2017-06-24T04:56:11.262Z,16.49
2017-06-24T04:56:51.802Z,16.49
2017-06-24T04:57:32.318Z,16.46
2017-06-24T04:58:12.843Z,16.61
2017-06-24T04:58:53.359Z,16.53
2017-06-24T04:59:33.889Z,16.56
2017-06-24T05:00:14.426Z,16.67
2017-06-24T05:00:54.959Z,16.64
2017-06-24T05:01:35.484Z,16.66
2017-06-24T05:02:16.025Z,16.68
2017-06-24T05:02:56.567Z,16.64
2017-06-24T05:03:37.091Z,16.67
2017-06-24T05:04:17.623Z,16.76
2017-06-24T05:04:58.148Z,16.75
2017-06-24T05:05:38.689Z,16.78
2017-06-24T05:06:19.217Z,16.73
2017-06-24T05:06:59.757Z,16.75
2017-06-24T05:07:40.288Z,16.83
2017-06-24T05:08:20.831Z,16.83
2017-06-24T05:09:01.358Z,16.79
2017-06-24T05:09:41.904Z,16.76
2017-06-24T05:10:22.443Z,16.79
2017-06-24T05:11:02.971Z,16.82
2017-06-24T05:11:43.505Z,16.89
2017-06-24T05:12:24.042Z,16.89
2017-06-24T05:13:04.559Z,16.86
2017-06-24T05:13:45.091Z,16.78
2017-06-24T05:14:25.635Z,16.83
2017-06-24T05:15:06.174Z,16.82
2017-06-24T05:15:46.689Z,16.88
2017-06-24T05:16:27.209Z,16.85
2017-06-24T05:17:07.751Z,16.91
2017-06-24T05:17:48.293Z,16.93
2017-06-24T05:18:28.862Z,16.94
2017-06-24T05:19:09.395Z,16.89
2017-06-24T05:19:49.944Z,16.97
2017-06-24T05:20:30.477Z,16.94
2017-06-24T05:21:11.002Z,16.97
2017-06-24T05:21:51.536Z,16.91
2017-06-24T05:22:32.088Z,16.97
2017-06-24T05:23:12.616Z,17.01
2017-06-24T05:23:53.203Z,16.94
2017-06-24T05:24:33.753Z,16.96
2017-06-24T05:25:14.271Z,16.97
2017-06-24T05:25:54.818Z,17.01
2017-06-24T05:26:35.338Z,17.08
2017-06-24T05:27:15.887Z,17.11
2017-06-24T05:27:56.394Z,17.16
2017-06-24T05:28:36.904Z,17.16
2017-06-24T05:29:17.426Z,17.21
2017-06-24T05:29:57.944Z,17.15
2017-06-24T05:30:38.510Z,17.16
2017-06-24T05:31:19.044Z,17.28
2017-06-24T05:31:59.583Z,17.23
2017-06-24T05:32:40.143Z,17.22
2017-06-24T05:33:20.656Z,17.25
2017-06-24T05:34:01.188Z,17.22
2017-06-24T05:34:41.766Z,17.3
2017-06-24T05:35:22.307Z,17.26
2017-06-24T05:36:02.855Z,17.31
2017-06-24T05:36:43.386Z,17.44
2017-06-24T05:37:23.943Z,17.48
2017-06-24T05:38:04.486Z,17.52
2017-06-24T05:38:45.018Z,17.56
2017-06-24T05:39:25.565Z,17.54
2017-06-24T05:40:06.107Z,17.56
2017-06-24T05:40:46.657Z,17.64
2017-06-24T05:41:27.219Z,17.59
2017-06-24T05:42:07.757Z,17.62
2017-06-24T05:42:48.303Z,17.66
2017-06-24T05:43:28.841Z,17.78
2017-06-24T05:44:09.376Z,17.75
2017-06-24T05:44:49.921Z,17.77
2017-06-24T05:45:30.464Z,17.79
2017-06-24T05:46:10.979Z,17.84
2017-06-24T05:46:51.536Z,17.75
2017-06-24T05:47:32.037Z,17.79
2017-06-24T05:48:12.530Z,17.89
2017-06-24T05:48:53.078Z,17.93
2017-06-24T05:49:33.607Z,17.9
2017-06-24T05:50:14.136Z,17.93
2017-06-24T05:50:54.635Z,17.96
2017-06-24T05:51:35.121Z,17.92
2017-06-24T05:52:15.641Z,17.95
2017-06-24T05:52:56.347Z,17.9
2017-06-24T05:53:37.082Z,17.9
2017-06-24T05:54:17.568Z,17.96
2017-06-24T05:54:58.041Z,17.96
2017-06-24T05:55:38.554Z,17.99
2017-06-24T05:56:19.097Z,17.96
2017-06-24T05:56:59.638Z,18.05
2017-06-24T05:57:40.104Z,18.02
2017-06-24T05:58:20.656Z,18.05
2017-06-24T05:59:01.156Z,18.12
2017-06-24T05:59:41.654Z,18.15
2017-06-24T06:00:22.200Z,18.21
2017-06-24T06:01:02.657Z,18.17
2017-06-24T06:01:43.140Z,18.12
2017-06-24T06:02:24.363Z,18.07
2017-06-24T06:03:04.852Z,18.12
2017-06-24T06:03:45.344Z,18.17
2017-06-24T06:04:25.854Z,18.11
2017-06-24T06:05:06.343Z,18.17
2017-06-24T06:05:46.842Z,18.12
2017-06-24T06:06:27.355Z,18.14
2017-06-24T06:07:07.870Z,18.21
2017-06-24T06:07:48.432Z,18.23
2017-06-24T06:08:28.921Z,18.2
2017-06-24T06:09:09.408Z,18.17
2017-06-24T06:09:50.059Z,18.17
2017-06-24T06:10:30.709Z,18.18
2017-06-24T06:11:11.161Z,18.2
2017-06-24T06:11:51.709Z,18.18
2017-06-24T06:12:32.196Z,18.21
2017-06-24T06:13:12.750Z,18.27
2017-06-24T06:13:53.279Z,18.26
2017-06-24T06:14:33.842Z,18.25
2017-06-24T06:15:14.378Z,18.27
2017-06-24T06:15:54.901Z,18.41
2017-06-24T06:16:35.512Z,18.32
2017-06-24T06:17:16.113Z,18.32
2017-06-24T06:17:56.705Z,18.37
2017-06-24T06:18:37.349Z,18.48
2017-06-24T06:19:17.914Z,18.42
2017-06-24T06:19:58.451Z,18.51
2017-06-24T06:20:39.029Z,18.52
2017-06-24T06:21:19.581Z,18.5
2017-06-24T06:22:00.126Z,18.48
2017-06-24T06:22:40.687Z,18.45
2017-06-24T06:23:21.242Z,18.44
2017-06-24T06:24:01.768Z,18.54
2017-06-24T06:24:42.299Z,18.48
2017-06-24T06:25:22.833Z,18.45
2017-06-24T06:26:03.375Z,18.45
2017-06-24T06:26:43.921Z,18.47
2017-06-24T06:27:24.471Z,18.48
2017-06-24T06:28:05.009Z,18.52
2017-06-24T06:28:45.552Z,18.45
2017-06-24T06:29:26.076Z,18.48
2017-06-24T06:30:06.638Z,18.54
2017-06-24T06:30:47.177Z,18.48
2017-06-24T06:31:27.713Z,18.47
2017-06-24T06:32:08.243Z,18.54
2017-06-24T06:32:48.868Z,18.65
2017-06-24T06:33:29.402Z,18.65
2017-06-24T06:34:09.943Z,18.7
2017-06-24T06:34:50.491Z,18.67
2017-06-24T06:35:31.034Z,18.72
2017-06-24T06:36:11.583Z,18.69
2017-06-24T06:36:52.116Z,18.75
2017-06-24T06:37:32.653Z,18.7
2017-06-24T06:38:13.232Z,18.8
2017-06-24T06:38:53.796Z,18.81
2017-06-24T06:39:34.322Z,18.88
2017-06-24T06:40:14.863Z,18.9
2017-06-24T06:40:55.477Z,18.99
2017-06-24T06:41:36.043Z,18.92
2017-06-24T06:42:16.627Z,19.02
2017-06-24T06:42:57.134Z,19.04
2017-06-24T06:43:37.700Z,19.07
2017-06-24T06:44:18.229Z,19.1
2017-06-24T06:44:58.767Z,19.11
2017-06-24T06:45:39.305Z,19.16
2017-06-24T06:46:19.840Z,19.16
2017-06-24T06:47:00.382Z,19.14
2017-06-24T06:47:40.922Z,19.14
2017-06-24T06:48:21.479Z,19.13
2017-06-24T06:49:02.106Z,19.22
2017-06-24T06:49:42.649Z,19.11
2017-06-24T06:50:23.195Z,19.22
2017-06-24T06:51:03.741Z,19.28
2017-06-24T06:51:44.293Z,19.25
2017-06-24T06:52:24.842Z,19.36
2017-06-24T06:53:05.376Z,19.25
2017-06-24T06:53:45.920Z,19.29
2017-06-24T06:54:26.466Z,19.26
2017-06-24T06:55:07.012Z,19.28
2017-06-24T06:55:47.554Z,19.36
2017-06-24T06:56:28.104Z,19.19
2017-06-24T06:57:08.657Z,19.41
2017-06-24T06:57:49.205Z,19.32
2017-06-24T06:58:29.748Z,19.37
2017-06-24T06:59:10.274Z,19.37
2017-06-24T06:59:50.802Z,19.37
2017-06-24T07:00:31.366Z,19.36
2017-06-24T07:01:11.864Z,19.32
2017-06-24T07:01:52.405Z,19.28
2017-06-24T07:02:32.941Z,19.32
2017-06-24T07:03:13.464Z,19.32
2017-06-24T07:03:54.027Z,19.26
2017-06-24T07:04:34.564Z,19.26
2017-06-24T07:05:15.108Z,19.16
2017-06-24T07:05:55.659Z,19.13
2017-06-24T07:06:36.189Z,19.18
2017-06-24T07:07:16.806Z,19.19
2017-06-24T07:07:57.329Z,19.25
2017-06-24T07:08:37.871Z,19.28
2017-06-24T07:09:18.415Z,19.26
2017-06-24T07:09:58.971Z,19.26
2017-06-24T07:10:39.578Z,19.32
2017-06-24T07:11:20.124Z,19.32
2017-06-24T07:12:00.647Z,19.28
2017-06-24T07:12:41.187Z,19.26
2017-06-24T07:13:21.720Z,19.36
2017-06-24T07:14:02.289Z,19.36
2017-06-24T07:14:42.795Z,19.4
2017-06-24T07:15:23.345Z,19.29
2017-06-24T07:16:03.890Z,19.31
2017-06-24T07:16:44.441Z,19.39
2017-06-24T07:17:24.976Z,19.4
2017-06-24T07:18:05.526Z,19.5
2017-06-24T07:18:46.101Z,19.5
2017-06-24T07:19:26.639Z,19.46
2017-06-24T07:20:07.187Z,19.54
2017-06-24T07:20:47.735Z,19.61
2017-06-24T07:21:28.294Z,19.77
2017-06-24T07:22:08.820Z,19.74
2017-06-24T07:22:49.361Z,19.76
2017-06-24T07:23:29.916Z,19.92
2017-06-24T07:24:10.463Z,19.88
2017-06-24T07:24:51.006Z,19.91
2017-06-24T07:25:31.535Z,19.83
2017-06-24T07:26:12.079Z,20.01
2017-06-24T07:26:52.620Z,20.05
2017-06-24T07:27:33.154Z,20.06
2017-06-24T07:28:13.687Z,20.05
2017-06-24T07:28:54.229Z,20.11
2017-06-24T07:29:34.995Z,20.06
2017-06-24T07:30:15.542Z,20.13
2017-06-24T07:30:56.059Z,19.99
2017-06-24T07:31:36.597Z,19.86
2017-06-24T07:32:17.140Z,19.95
2017-06-24T07:32:57.688Z,19.91
2017-06-24T07:33:38.227Z,19.91
2017-06-24T07:34:18.812Z,20.01
2017-06-24T07:34:59.355Z,20.02
2017-06-24T07:35:39.899Z,20.05
2017-06-24T07:36:20.447Z,20.02
2017-06-24T07:37:00.995Z,20.02
2017-06-24T07:37:41.546Z,19.84
2017-06-24T07:38:22.169Z,19.88
2017-06-24T07:39:02.983Z,19.81
2017-06-24T07:39:43.290Z,19.84
2017-06-24T07:40:23.816Z,19.77
2017-06-24T07:41:04.380Z,19.77
2017-06-24T07:41:44.922Z,19.77
2017-06-24T07:42:25.467Z,19.74
2017-06-24T07:43:06.016Z,19.78
2017-06-24T07:43:46.561Z,19.69
2017-06-24T07:44:27.093Z,19.73
2017-06-24T07:45:07.630Z,19.74
2017-06-24T07:45:48.167Z,19.76
2017-06-24T07:46:28.709Z,19.74
2017-06-24T07:47:09.259Z,19.8
2017-06-24T07:47:49.776Z,19.74
2017-06-24T07:48:30.318Z,19.86
2017-06-24T07:49:10.872Z,19.86
2017-06-24T07:49:51.365Z,19.88
2017-06-24T07:50:31.882Z,19.87
2017-06-24T07:51:12.418Z,19.88
2017-06-24T07:51:52.985Z,20.01
2017-06-24T07:52:33.501Z,20.03
2017-06-24T07:53:14.039Z,20.03
2017-06-24T07:53:54.585Z,19.99
2017-06-24T07:54:35.130Z,20.08
2017-06-24T07:55:15.649Z,20.17
2017-06-24T07:55:56.210Z,20.16
2017-06-24T07:56:36.785Z,20.21
2017-06-24T07:57:17.364Z,20.18
2017-06-24T07:57:57.861Z,20.28
2017-06-24T07:58:38.399Z,20.32
2017-06-24T07:59:18.938Z,20.31
2017-06-24T07:59:59.487Z,20.33
2017-06-24T08:00:40.033Z,20.31
2017-06-24T08:01:20.581Z,20.33
2017-06-24T08:02:01.119Z,20.29
2017-06-24T08:02:41.684Z,20.29
2017-06-24T08:03:22.246Z,20.29
2017-06-24T08:04:02.781Z,20.41
2017-06-24T08:04:43.296Z,20.47
2017-06-24T08:05:23.837Z,20.57
2017-06-24T08:06:04.394Z,20.47
2017-06-24T08:06:44.904Z,20.57
2017-06-24T08:07:25.408Z,20.39
2017-06-24T08:08:05.995Z,20.32
2017-06-24T08:08:46.546Z,20.33
2017-06-24T08:09:27.093Z,20.41
2017-06-24T08:10:07.630Z,20.26
2017-06-24T08:10:48.171Z,20.31
2017-06-24T08:11:28.719Z,20.29
2017-06-24T08:12:09.270Z,20.31
2017-06-24T08:12:49.807Z,20.21
2017-06-24T08:13:30.356Z,20.36
2017-06-24T08:14:10.904Z,20.29
2017-06-24T08:14:51.475Z,20.43
2017-06-24T08:15:32.022Z,20.52
2017-06-24T08:16:12.559Z,20.51
2017-06-24T08:16:53.109Z,20.55
2017-06-24T08:17:33.647Z,20.59
2017-06-24T08:18:14.216Z,20.55
2017-06-24T08:18:54.753Z,20.42
2017-06-24T08:19:35.273Z,20.48
2017-06-24T08:20:15.805Z,20.57
2017-06-24T08:20:56.359Z,20.55
2017-06-24T08:21:36.897Z,20.66
2017-06-24T08:22:17.430Z,20.85
2017-06-24T08:22:57.949Z,20.89
2017-06-24T08:23:38.472Z,20.92
2017-06-24T08:24:19.010Z,21.14
2017-06-24T08:24:59.513Z,21.17
2017-06-24T08:25:40.057Z,21.17
2017-06-24T08:26:20.582Z,21.06
2017-06-24T08:27:01.102Z,20.97
2017-06-24T08:27:41.661Z,21.03
2017-06-24T08:28:22.164Z,21.14
2017-06-24T08:29:02.693Z,21.31
2017-06-24T08:29:43.222Z,21.65
2017-06-24T08:30:23.761Z,21.91
2017-06-24T08:31:04.311Z,22.31
2017-06-24T08:31:44.867Z,22.54
2017-06-24T08:32:25.413Z,22.75
2017-06-24T08:33:05.963Z,22.88
2017-06-24T08:33:46.514Z,22.82
2017-06-24T08:34:27.051Z,22.82
2017-06-24T08:35:07.578Z,22.73
2017-06-24T08:35:48.125Z,22.58
2017-06-24T08:36:28.674Z,22.46
2017-06-24T08:37:09.223Z,22.24
2017-06-24T08:37:49.766Z,22.09
2017-06-24T08:38:30.316Z,21.8
2017-06-24T08:39:10.862Z,21.61
2017-06-24T08:39:51.413Z,21.44
2017-06-24T08:40:31.959Z,21.19
2017-06-24T08:41:12.498Z,21.09
2017-06-24T08:41:53.063Z,21.14
2017-06-24T08:42:33.604Z,21.47
2017-06-24T08:43:14.199Z,21.96
2017-06-24T08:43:54.736Z,22.45